Time;durP1;ratioP1;P1;durP2;ratioP2;P2;SDS_P1;SDS_P2;PMS_P1;PMS_P2;Temp;Humidity;BMP_temperature;BMP_pressure;BME280_temperature;BME280_humidity;BME280_pressure;Samples;Min_cycle;Max_cycle;Signal;HPM_P1;HPM_P2
2023/11/07 00:01:05;;;;;;;4.60;2.22;;;24.50;99.90;;;;;;5031498;28;20103;-48
2023/11/07 00:03:31;;;;;;;5.53;2.88;;;24.40;99.90;;;;;;5031746;28;20162;-49
2023/11/07 00:05:56;;;;;;;3.65;2.30;;;24.40;99.90;;;;;;5031559;28;20026;-48
2023/11/07 00:08:22;;;;;;;3.67;2.10;;;24.40;99.90;;;;;;5030282;28;20026;-48
2023/11/07 00:10:48;;;;;;;3.97;2.17;;;24.40;99.90;;;;;;5031507;28;20025;-48
2023/11/07 00:13:14;;;;;;;5.68;2.90;;;24.40;99.90;;;;;;5032923;28;20495;-48
2023/11/07 00:15:41;;;;;;;4.88;2.53;;;24.40;99.90;;;;;;5035047;28;20042;-48
2023/11/07 00:18:07;;;;;;;5.80;2.67;;;24.30;99.90;;;;;;5035166;28;20044;-48
2023/11/07 00:20:33;;;;;;;4.22;2.33;;;24.30;99.90;;;;;;5035253;28;20473;-48
2023/11/07 00:22:59;;;;;;;3.42;1.98;;;24.30;99.90;;;;;;5035198;28;20021;-48
2023/11/07 00:25:27;;;;;;;4.88;2.58;;;24.30;99.90;;;;;;5034909;28;20049;-48
2023/11/07 00:27:53;;;;;;;4.32;2.10;;;24.30;99.90;;;;;;5034982;28;20378;-47
2023/11/07 00:30:19;;;;;;;4.00;2.25;;;24.30;99.90;;;;;;5034883;28;20025;-48
2023/11/07 00:32:45;;;;;;;4.25;2.60;;;24.30;99.90;;;;;;5034843;28;20532;-47
2023/11/07 00:35:11;;;;;;;4.15;2.08;;;24.30;99.90;;;;;;5034801;28;20037;-48
2023/11/07 00:37:37;;;;;;;4.93;2.28;;;24.20;99.90;;;;;;5034814;28;20022;-48
2023/11/07 00:40:03;;;;;;;4.07;2.25;;;24.20;99.90;;;;;;5034944;28;20113;-48
2023/11/07 00:42:29;;;;;;;5.57;2.50;;;24.20;99.90;;;;;;5034816;28;20053;-48
2023/11/07 00:44:55;;;;;;;4.65;2.40;;;24.20;99.90;;;;;;5034699;28;20798;-48
2023/11/07 00:47:21;;;;;;;3.38;2.15;;;24.20;99.90;;;;;;5034567;28;20033;-48
2023/11/07 00:49:47;;;;;;;5.47;2.60;;;24.20;99.90;;;;;;5034450;28;20034;-48
2023/11/07 00:52:13;;;;;;;5.13;2.72;;;24.10;99.90;;;;;;5034525;28;20026;-48
2023/11/07 00:54:39;;;;;;;4.22;2.45;;;24.10;99.90;;;;;;5034394;28;20377;-47
2023/11/07 00:57:04;;;;;;;4.25;2.45;;;24.10;99.90;;;;;;5034635;28;20470;-48
2023/11/07 00:59:30;;;;;;;5.40;2.75;;;24.10;99.90;;;;;;5034359;28;20028;-47
2023/11/07 01:01:56;;;;;;;5.53;2.90;;;24.10;99.90;;;;;;5034228;28;20060;-48
2023/11/07 01:04:23;;;;;;;5.40;3.10;;;24.00;99.90;;;;;;5034460;28;20030;-48
2023/11/07 01:06:49;;;;;;;5.00;2.60;;;24.10;99.90;;;;;;5034361;28;20020;-48
2023/11/07 01:09:16;;;;;;;5.50;2.47;;;24.00;99.90;;;;;;5032876;28;20029;-47
2023/11/07 01:11:42;;;;;;;3.78;2.40;;;24.00;99.90;;;;;;5034259;28;20018;-49
2023/11/07 01:14:08;;;;;;;5.85;3.03;;;24.00;99.90;;;;;;5034092;28;20068;-48
2023/11/07 01:16:33;;;;;;;6.57;3.03;;;24.00;99.90;;;;;;5034328;28;20101;-48
2023/11/07 01:18:59;;;;;;;4.80;2.90;;;24.00;99.90;;;;;;5032694;28;20116;-48
2023/11/07 01:21:25;;;;;;;4.40;2.53;;;23.90;99.90;;;;;;5033954;28;20068;-48
2023/11/07 01:23:51;;;;;;;4.45;2.20;;;23.90;99.90;;;;;;5032770;28;20029;-48
2023/11/07 01:26:16;;;;;;;4.65;2.30;;;23.90;99.90;;;;;;5034012;28;20076;-48
2023/11/07 01:28:42;;;;;;;3.70;2.47;;;23.90;99.90;;;;;;5033789;28;20053;-48
2023/11/07 01:31:09;;;;;;;5.78;2.75;;;23.90;99.90;;;;;;5033831;28;20018;-48
2023/11/07 01:33:35;;;;;;;5.78;2.65;;;23.90;99.90;;;;;;5033967;28;20025;-48
2023/11/07 01:36:01;;;;;;;5.45;2.47;;;23.80;99.90;;;;;;5033623;28;20037;-48
2023/11/07 01:38:27;;;;;;;4.85;2.75;;;23.80;99.90;;;;;;5033511;28;20029;-48
2023/11/07 01:40:53;;;;;;;3.97;2.67;;;23.80;99.90;;;;;;5033519;28;20025;-48
2023/11/07 01:43:21;;;;;;;5.18;2.25;;;23.80;99.90;;;;;;5033564;28;20253;-48
2023/11/07 01:45:46;;;;;;;3.90;2.30;;;23.80;99.90;;;;;;5033404;28;20029;-48
2023/11/07 01:48:15;;;;;;;2.20;1.60;;;23.70;99.90;;;;;;5033548;28;20029;-48
2023/11/07 01:50:41;;;;;;;4.80;2.20;;;23.70;99.90;;;;;;5033486;28;20056;-48
2023/11/07 01:53:08;;;;;;;3.65;2.05;;;23.70;99.90;;;;;;5033565;28;20025;-48
2023/11/07 01:55:35;;;;;;;3.67;1.90;;;23.70;99.90;;;;;;5033297;28;20033;-48
2023/11/07 01:58:01;;;;;;;3.05;2.00;;;23.70;99.90;;;;;;5033336;28;20067;-48
2023/11/07 02:00:28;;;;;;;3.30;1.92;;;23.70;99.90;;;;;;5043161;22;20021;-56
2023/11/07 02:02:55;;;;;;;5.00;2.25;;;23.70;99.90;;;;;;4993762;28;20082;-54
2023/11/07 02:05:20;;;;;;;3.20;1.60;;;23.70;99.90;;;;;;4993880;28;20018;-54
2023/11/07 02:07:46;;;;;;;4.78;2.00;;;23.60;99.90;;;;;;4993658;28;20109;-54
2023/11/07 02:10:13;;;;;;;3.47;1.35;;;23.60;99.90;;;;;;4993697;28;20065;-55
2023/11/07 02:12:39;;;;;;;2.60;1.60;;;23.60;99.90;;;;;;4993702;28;20041;-55
2023/11/07 02:15:38;;;;;;;2.75;1.60;;;23.60;99.90;;;;;;4993617;28;20038;-54
2023/11/07 02:18:04;;;;;;;3.88;2.10;;;23.60;99.90;;;;;;4971443;28;20511;-55
2023/11/07 02:20:31;;;;;;;3.63;1.55;;;23.60;99.90;;;;;;4993529;28;20030;-55
2023/11/07 02:23:22;;;;;;;3.45;1.63;;;23.60;99.90;;;;;;4993350;28;20054;-54
2023/11/07 02:25:52;;;;;;;3.75;1.77;;;23.50;99.90;;;;;;4993173;28;20118;-55
2023/11/07 02:28:17;;;;;;;2.33;1.50;;;23.50;99.90;;;;;;4993383;28;20060;-54
2023/11/07 02:30:47;;;;;;;3.28;1.42;;;23.50;99.90;;;;;;4993611;28;20422;-54
2023/11/07 02:33:14;;;;;;;3.95;1.40;;;23.50;99.90;;;;;;4993246;28;20050;-54
2023/11/07 02:35:41;;;;;;;4.00;1.43;;;23.40;99.90;;;;;;4993066;28;20088;-54
2023/11/07 02:38:07;;;;;;;3.40;1.33;;;23.40;99.90;;;;;;4991952;28;20050;-53
2023/11/07 02:40:33;;;;;;;3.85;1.52;;;23.40;99.90;;;;;;4993240;28;20022;-53
2023/11/07 02:43:04;;;;;;;2.25;1.40;;;23.40;99.90;;;;;;4993183;28;20019;-52
2023/11/07 02:45:30;;;;;;;2.28;1.67;;;23.40;99.90;;;;;;4992988;28;20026;-54
2023/11/07 02:47:57;;;;;;;5.35;1.63;;;23.40;99.90;;;;;;4993130;28;20094;-53
2023/11/07 02:50:23;;;;;;;3.58;2.00;;;23.40;99.90;;;;;;4993023;28;20026;-53
2023/11/07 02:52:49;;;;;;;3.05;1.45;;;23.30;99.90;;;;;;4992833;28;20360;-54
2023/11/07 02:55:15;;;;;;;4.00;1.50;;;23.30;99.90;;;;;;4992826;28;20046;-52
2023/11/07 02:57:41;;;;;;;1.85;1.33;;;23.30;99.90;;;;;;4993033;28;20018;-53
2023/11/07 03:00:10;;;;;;;3.20;1.20;;;23.30;99.90;;;;;;4993488;28;20105;-54
2023/11/07 03:02:37;;;;;;;3.20;1.52;;;23.30;99.90;;;;;;4992757;28;20129;-54
2023/11/07 03:05:04;;;;;;;2.17;1.23;;;23.30;99.90;;;;;;4992848;28;20105;-54
2023/11/07 03:07:31;;;;;;;3.20;1.20;;;23.30;99.90;;;;;;4992903;28;20046;-54
2023/11/07 03:09:58;;;;;;;1.80;1.30;;;23.30;99.90;;;;;;5007853;28;20030;-55
2023/11/07 03:12:24;;;;;;;1.45;0.93;;;23.20;99.90;;;;;;4993142;28;20054;-54
2023/11/07 03:14:50;;;;;;;1.95;1.10;;;23.20;99.90;;;;;;4992709;28;20034;-54
2023/11/07 03:17:16;;;;;;;2.97;1.20;;;23.20;99.90;;;;;;4992631;28;20041;-54
2023/11/07 03:19:43;;;;;;;2.85;1.08;;;23.20;99.90;;;;;;4992741;28;20053;-55
2023/11/07 03:22:09;;;;;;;2.10;1.30;;;23.20;99.90;;;;;;4993060;28;20023;-55
2023/11/07 03:24:35;;;;;;;2.00;1.20;;;23.20;99.90;;;;;;4992714;28;20034;-54
2023/11/07 03:27:02;;;;;;;1.83;1.27;;;23.10;99.90;;;;;;4991288;28;20437;-55
2023/11/07 03:29:28;;;;;;;2.13;1.35;;;23.10;99.90;;;;;;4992737;28;20027;-55
2023/11/07 03:31:54;;;;;;;2.33;1.40;;;23.10;99.90;;;;;;4992650;28;20030;-54
2023/11/07 03:34:21;;;;;;;2.97;1.25;;;23.20;99.90;;;;;;4992690;28;20026;-54
2023/11/07 03:36:46;;;;;;;2.22;1.23;;;23.10;99.90;;;;;;4992621;28;20026;-54
2023/11/07 03:39:12;;;;;;;3.28;1.27;;;23.10;99.90;;;;;;4992745;28;20490;-55
2023/11/07 03:41:41;;;;;;;2.65;1.30;;;23.10;99.90;;;;;;4992527;28;20056;-55
2023/11/07 03:44:07;;;;;;;2.10;1.02;;;23.10;99.90;;;;;;4992596;28;20022;-56
2023/11/07 03:46:33;;;;;;;2.25;0.80;;;23.00;99.90;;;;;;4992513;28;20033;-54
2023/11/07 03:48:58;;;;;;;2.22;1.13;;;23.00;99.90;;;;;;4996045;28;20109;-56
2023/11/07 03:51:24;;;;;;;2.38;1.10;;;23.00;99.90;;;;;;4996272;28;20038;-55
2023/11/07 03:53:50;;;;;;;3.65;1.20;;;23.00;99.90;;;;;;4996162;28;20050;-56
2023/11/07 03:56:16;;;;;;;3.08;1.27;;;23.00;99.90;;;;;;4996186;28;20089;-55
2023/11/07 03:58:42;;;;;;;3.28;1.08;;;23.00;99.90;;;;;;4996374;28;20101;-54
2023/11/07 04:01:09;;;;;;;4.47;1.05;;;23.00;99.90;;;;;;5023191;22;20049;-39
2023/11/07 04:03:35;;;;;;;3.38;1.08;;;23.00;99.90;;;;;;5033608;28;20132;-40
2023/11/07 04:06:00;;;;;;;4.40;1.08;;;22.90;99.90;;;;;;5034214;28;20036;-39
2023/11/07 04:08:26;;;;;;;3.33;1.10;;;22.90;99.90;;;;;;5033775;28;20470;-40
2023/11/07 04:10:52;;;;;;;3.78;1.52;;;22.90;99.90;;;;;;5034356;28;20029;-39
2023/11/07 04:13:18;;;;;;;2.38;1.00;;;22.90;99.90;;;;;;5034858;28;20022;-40
2023/11/07 04:15:43;;;;;;;3.28;1.25;;;22.90;99.90;;;;;;5034518;28;20386;-39
2023/11/07 04:18:10;;;;;;;2.08;0.80;;;22.90;99.90;;;;;;5034598;28;20018;-39
2023/11/07 04:20:36;;;;;;;2.25;1.13;;;22.80;99.90;;;;;;5034268;28;20040;-39
2023/11/07 04:23:02;;;;;;;1.53;0.90;;;22.90;99.90;;;;;;5033958;28;20053;-39
2023/11/07 04:25:30;;;;;;;4.25;1.00;;;22.80;99.90;;;;;;5033024;28;20664;-39
2023/11/07 04:27:56;;;;;;;3.63;1.20;;;22.80;99.90;;;;;;5034588;28;20203;-39
2023/11/07 04:30:23;;;;;;;2.13;0.90;;;22.80;99.90;;;;;;5033532;28;20374;-39
2023/11/07 04:32:48;;;;;;;4.03;1.10;;;22.80;99.90;;;;;;5034739;28;20021;-39
2023/11/07 04:35:15;;;;;;;3.13;1.38;;;22.80;99.90;;;;;;5034535;28;20034;-39
2023/11/07 04:37:42;;;;;;;4.72;0.90;;;22.80;99.90;;;;;;5034704;28;20473;-39
2023/11/07 04:40:08;;;;;;;4.38;1.48;;;22.80;99.90;;;;;;5034983;28;20033;-39
2023/11/07 04:42:34;;;;;;;3.33;1.73;;;22.70;99.90;;;;;;5034929;28;20029;-39
2023/11/07 04:45:01;;;;;;;2.22;1.05;;;22.70;99.90;;;;;;5034474;28;20040;-39
2023/11/07 04:47:27;;;;;;;6.68;1.23;;;22.70;99.90;;;;;;5034546;28;20033;-39
2023/11/07 04:49:56;;;;;;;2.38;1.00;;;22.70;99.90;;;;;;5034626;28;20017;-39
2023/11/07 04:52:22;;;;;;;1.90;1.00;;;22.70;99.90;;;;;;5034526;28;20417;-39
2023/11/07 04:54:48;;;;;;;2.75;0.90;;;22.70;99.90;;;;;;5033169;28;20121;-40
2023/11/07 04:57:14;;;;;;;2.40;1.13;;;22.70;99.90;;;;;;5034637;28;20033;-39
2023/11/07 04:59:40;;;;;;;2.03;0.77;;;22.70;99.90;;;;;;5034304;28;20025;-39
2023/11/07 05:02:06;;;;;;;2.55;0.80;;;22.60;99.90;;;;;;5034612;28;20049;-39
2023/11/07 05:04:33;;;;;;;1.92;0.80;;;22.70;99.90;;;;;;5034851;28;20020;-39
2023/11/07 05:07:00;;;;;;;1.70;0.80;;;22.60;99.90;;;;;;5034508;28;20029;-39
2023/11/07 05:09:26;;;;;;;2.83;1.15;;;22.60;99.90;;;;;;5034256;28;20033;-39
2023/11/07 05:11:52;;;;;;;2.78;0.70;;;22.60;99.90;;;;;;5032884;28;20022;-39
2023/11/07 05:14:18;;;;;;;1.90;1.08;;;22.60;99.90;;;;;;5034155;28;20022;-39
2023/11/07 05:16:44;;;;;;;3.40;0.93;;;22.50;99.90;;;;;;5034196;28;20091;-39
2023/11/07 05:19:11;;;;;;;1.88;0.90;;;22.50;99.90;;;;;;5033970;28;20068;-40
2023/11/07 05:21:37;;;;;;;3.30;1.20;;;22.50;99.90;;;;;;5032703;28;20033;-40
2023/11/07 05:24:06;;;;;;;2.65;1.35;;;22.60;99.90;;;;;;5034007;28;20035;-40
2023/11/07 05:26:32;;;;;;;3.88;1.85;;;22.60;99.90;;;;;;5033882;28;20020;-40
2023/11/07 05:29:01;;;;;;;3.65;1.20;;;22.50;99.90;;;;;;5033957;28;20108;-40
2023/11/07 05:31:27;;;;;;;3.20;1.08;;;22.50;99.90;;;;;;5033905;28;20021;-39
2023/11/07 05:33:53;;;;;;;2.80;1.38;;;22.50;99.90;;;;;;5033800;28;20036;-40
2023/11/07 05:36:19;;;;;;;2.88;1.13;;;22.50;99.90;;;;;;5033887;28;20088;-41
2023/11/07 05:38:45;;;;;;;3.97;1.35;;;22.50;99.90;;;;;;5033773;28;20493;-41
2023/11/07 05:41:11;;;;;;;1.88;1.27;;;22.50;99.90;;;;;;5033659;28;20432;-39
2023/11/07 05:43:39;;;;;;;2.70;1.35;;;22.40;99.90;;;;;;5033495;28;20048;-39
2023/11/07 05:46:05;;;;;;;3.00;1.33;;;22.40;99.90;;;;;;5033516;28;20013;-40
2023/11/07 05:48:31;;;;;;;6.78;1.38;;;22.40;99.90;;;;;;5033324;28;20033;-39
2023/11/07 05:50:58;;;;;;;3.88;1.25;;;22.40;99.90;;;;;;5033455;28;20025;-40
2023/11/07 05:53:24;;;;;;;3.92;1.60;;;22.40;99.90;;;;;;5033312;28;20029;-40
2023/11/07 05:55:50;;;;;;;2.25;1.40;;;22.40;99.90;;;;;;5033542;28;20045;-40
2023/11/07 05:58:16;;;;;;;4.47;1.60;;;22.40;99.90;;;;;;5033372;28;20035;-40
2023/11/07 06:00:43;;;;;;;2.80;1.65;;;22.40;99.90;;;;;;5028845;28;20038;-40
2023/11/07 06:03:08;;;;;;;3.50;1.63;;;22.40;99.90;;;;;;5013338;28;20030;-39
2023/11/07 06:05:34;;;;;;;3.97;1.45;;;22.30;99.90;;;;;;5012680;28;20564;-40
2023/11/07 06:08:00;;;;;;;2.85;1.50;;;22.40;99.90;;;;;;5011270;28;20104;-40
2023/11/07 06:10:26;;;;;;;4.18;1.48;;;22.30;99.90;;;;;;5011871;28;20038;-38
2023/11/07 06:12:52;;;;;;;5.10;1.85;;;22.30;99.90;;;;;;5013264;28;20025;-39
2023/11/07 06:15:19;;;;;;;4.53;2.00;;;22.30;99.90;;;;;;5013200;28;20114;-39
2023/11/07 06:17:46;;;;;;;2.67;1.20;;;22.30;99.90;;;;;;5013206;28;20050;-39
2023/11/07 06:20:18;;;;;;;3.43;1.77;;;22.30;99.90;;;;;;5013245;28;20105;-39
2023/11/07 06:22:44;;;;;;;3.45;1.75;;;22.30;99.90;;;;;;5012107;28;20021;-39
2023/11/07 06:25:12;;;;;;;3.50;1.63;;;22.30;99.90;;;;;;5011664;28;20034;-39
2023/11/07 06:27:38;;;;;;;3.88;1.88;;;22.20;99.90;;;;;;5013027;28;20091;-39
2023/11/07 06:30:06;;;;;;;3.70;1.67;;;22.20;99.90;;;;;;5013174;28;20026;-39
2023/11/07 06:32:32;;;;;;;3.25;1.58;;;22.20;99.90;;;;;;5012839;28;20076;-39
2023/11/07 06:34:58;;;;;;;5.70;1.80;;;22.20;99.90;;;;;;5012696;28;20151;-38
2023/11/07 06:37:23;;;;;;;3.53;1.85;;;22.20;99.90;;;;;;5012642;28;20489;-40
2023/11/07 06:39:49;;;;;;;2.63;1.50;;;22.20;99.90;;;;;;5012983;28;20063;-40
2023/11/07 06:42:17;;;;;;;4.85;1.80;;;22.20;99.90;;;;;;5012629;28;20490;-40
2023/11/07 06:44:44;;;;;;;3.85;1.38;;;22.20;99.90;;;;;;5012750;28;20029;-40
2023/11/07 06:47:09;;;;;;;4.30;1.33;;;22.20;99.90;;;;;;5012809;28;20026;-40
2023/11/07 06:49:35;;;;;;;4.57;1.50;;;22.20;99.90;;;;;;5012528;28;20048;-39
2023/11/07 06:52:01;;;;;;;3.83;1.40;;;22.20;99.90;;;;;;5011582;28;20040;-39
2023/11/07 06:54:27;;;;;;;5.13;1.40;;;22.20;99.90;;;;;;5012538;28;20426;-40
2023/11/07 06:56:53;;;;;;;5.18;1.92;;;22.20;99.90;;;;;;5012632;28;20378;-40
2023/11/07 06:59:18;;;;;;;4.28;1.38;;;22.20;99.90;;;;;;5012472;28;20045;-40
2023/11/07 07:01:44;;;;;;;3.40;1.80;;;22.20;99.90;;;;;;5012323;28;20100;-40
2023/11/07 07:04:11;;;;;;;4.10;1.45;;;22.20;99.90;;;;;;5012436;28;20060;-39
2023/11/07 07:06:37;;;;;;;3.67;1.45;;;22.20;99.90;;;;;;5012273;28;20065;-39
2023/11/07 07:09:08;;;;;;;3.03;1.48;;;22.20;99.90;;;;;;5012435;28;20026;-40
2023/11/07 07:11:34;;;;;;;3.63;1.50;;;22.20;99.90;;;;;;5012467;28;20032;-40
2023/11/07 07:14:02;;;;;;;4.18;1.42;;;22.20;99.90;;;;;;5012306;28;20429;-39
2023/11/07 07:16:30;;;;;;;4.13;1.60;;;22.20;99.90;;;;;;5012355;28;20030;-39
2023/11/07 07:18:56;;;;;;;2.53;1.40;;;22.20;99.90;;;;;;5012626;28;20386;-39
2023/11/07 07:21:22;;;;;;;3.30;1.58;;;22.20;99.90;;;;;;5011135;28;20022;-40
2023/11/07 07:23:48;;;;;;;5.30;1.50;;;22.20;99.90;;;;;;5031007;28;20402;-40
2023/11/07 07:26:14;;;;;;;3.10;1.45;;;22.30;99.90;;;;;;5016437;28;20474;-39
2023/11/07 07:28:43;;;;;;;6.55;1.80;;;22.30;99.90;;;;;;5015086;28;20030;-39
2023/11/07 07:31:10;;;;;;;4.22;1.33;;;22.30;99.90;;;;;;5016359;28;20022;-40
2023/11/07 07:33:37;;;;;;;4.05;1.38;;;22.30;99.90;;;;;;5016244;28;20034;-40
2023/11/07 07:36:04;;;;;;;5.72;1.35;;;22.30;99.90;;;;;;5016173;28;20121;-41
2023/11/07 07:38:35;;;;;;;2.95;1.23;;;22.40;99.90;;;;;;5016188;28;20382;-40
2023/11/07 07:41:01;;;;;;;2.70;1.17;;;22.40;99.90;;;;;;5016045;28;20037;-40
2023/11/07 07:43:27;;;;;;;4.55;1.10;;;22.40;99.90;;;;;;5016145;28;20026;-40
2023/11/07 07:45:56;;;;;;;2.72;1.45;;;22.40;99.90;;;;;;5016303;28;20030;-39
2023/11/07 07:48:26;;;;;;;4.10;1.77;;;22.50;99.90;;;;;;5016199;28;20028;-40
2023/11/07 07:50:52;;;;;;;3.55;1.45;;;22.50;99.90;;;;;;5014684;28;20034;-41
2023/11/07 07:53:21;;;;;;;5.75;1.88;;;22.50;99.90;;;;;;5014620;28;20025;-40
2023/11/07 07:55:50;;;;;;;4.60;1.38;;;22.50;99.90;;;;;;5015705;28;21039;-41
2023/11/07 07:58:19;;;;;;;3.88;1.60;;;22.60;99.90;;;;;;5015799;28;20474;-40
2023/11/07 08:00:49;;;;;;;6.38;1.45;;;22.60;99.90;;;;;;5015524;28;20402;-40
2023/11/07 08:03:16;;;;;;;2.22;1.08;;;22.70;99.90;;;;;;5015576;28;20037;-40
2023/11/07 08:05:44;;;;;;;2.78;1.20;;;22.70;99.90;;;;;;5015687;28;20026;-40
2023/11/07 08:08:14;;;;;;;3.83;1.50;;;22.70;99.90;;;;;;5015646;28;20026;-40
2023/11/07 08:10:40;;;;;;;5.10;1.67;;;22.70;99.90;;;;;;5015478;28;20026;-41
2023/11/07 08:13:07;;;;;;;3.35;1.20;;;22.80;99.90;;;;;;5015423;28;20034;-40
2023/11/07 08:15:34;;;;;;;3.17;1.20;;;22.80;99.90;;;;;;5014075;28;20044;-40
2023/11/07 08:18:05;;;;;;;3.58;1.33;;;22.90;99.90;;;;;;5015470;28;20502;-40
2023/11/07 08:20:34;;;;;;;4.03;1.73;;;22.90;99.90;;;;;;5015331;28;20113;-40
2023/11/07 08:23:01;;;;;;;3.20;1.27;;;22.90;99.90;;;;;;5015317;28;20382;-40
2023/11/07 08:25:30;;;;;;;3.70;1.50;;;23.00;99.90;;;;;;5015502;28;20030;-40
2023/11/07 08:27:58;;;;;;;5.05;1.20;;;23.00;99.90;;;;;;5014087;28;20033;-40
2023/11/07 08:30:24;;;;;;;4.00;1.30;;;23.00;99.90;;;;;;5015352;28;20025;-40
2023/11/07 08:32:51;;;;;;;3.25;1.30;;;23.10;99.90;;;;;;5013464;28;20034;-40
2023/11/07 08:35:20;;;;;;;3.13;1.27;;;23.10;99.90;;;;;;5014993;28;20074;-40
2023/11/07 08:37:47;;;;;;;2.45;1.40;;;23.10;99.90;;;;;;5014974;28;20493;-40
2023/11/07 08:40:16;;;;;;;3.72;1.77;;;23.10;99.90;;;;;;5014937;28;20080;-40
2023/11/07 08:42:48;;;;;;;3.78;1.55;;;23.20;99.90;;;;;;5013561;28;20544;-40
2023/11/07 08:45:21;;;;;;;4.78;1.50;;;23.20;99.90;;;;;;5014831;28;20017;-40
2023/11/07 08:47:54;;;;;;;8.13;1.52;;;23.30;99.90;;;;;;5014772;28;20030;-41
2023/11/07 08:50:23;;;;;;;4.40;1.85;;;23.30;99.90;;;;;;5014711;28;20018;-40
2023/11/07 08:52:52;;;;;;;6.75;2.03;;;23.30;99.90;;;;;;5014884;28;20022;-40
2023/11/07 08:55:21;;;;;;;6.47;1.80;;;23.30;99.90;;;;;;5014462;28;20116;-40
2023/11/07 08:57:48;;;;;;;2.65;1.50;;;23.40;99.90;;;;;;5013275;28;20030;-40
2023/11/07 09:00:22;;;;;;;3.45;1.50;;;23.40;99.90;;;;;;5013503;28;20045;-40
2023/11/07 09:02:48;;;;;;;4.70;1.55;;;23.50;99.90;;;;;;5014324;28;20046;-40
2023/11/07 09:05:16;;;;;;;6.70;1.73;;;23.50;99.90;;;;;;5014391;28;20032;-40
2023/11/07 09:07:42;;;;;;;;;;;23.50;99.90;;;;;;5014840;28;20022;-40
2023/11/07 09:10:11;;;;;;;5.13;1.73;;;23.60;99.90;;;;;;5014328;28;19905;-39
2023/11/07 09:12:37;;;;;;;2.88;1.70;;;23.60;99.90;;;;;;5014284;28;20037;-40
2023/11/07 09:15:05;;;;;;;4.72;1.63;;;23.70;99.90;;;;;;5014151;28;20040;-40
2023/11/07 09:17:34;;;;;;;2.97;1.40;;;23.70;99.90;;;;;;5014506;28;20026;-40
2023/11/07 09:20:05;;;;;;;4.55;1.73;;;23.70;99.90;;;;;;5014464;28;20108;-40
2023/11/07 09:22:31;;;;;;;4.40;1.60;;;23.80;99.90;;;;;;5013405;28;20018;-40
2023/11/07 09:24:57;;;;;;;4.65;2.15;;;23.80;99.90;;;;;;5014175;28;20053;-39
2023/11/07 09:27:23;;;;;;;3.92;1.80;;;23.80;99.90;;;;;;5012898;28;20113;-39
2023/11/07 09:29:55;;;;;;;5.38;1.88;;;23.90;99.90;;;;;;5013014;28;20541;-39
2023/11/07 09:32:22;;;;;;;8.40;1.73;;;23.90;99.90;;;;;;5014051;28;20104;-40
2023/11/07 09:34:48;;;;;;;3.57;1.50;;;23.90;99.90;;;;;;5013912;28;20420;-40
2023/11/07 09:37:15;;;;;;;6.18;1.98;;;24.00;99.90;;;;;;5013933;28;20029;-40
2023/11/07 09:39:41;;;;;;;6.50;1.63;;;24.00;99.90;;;;;;5028927;28;20068;-40
2023/11/07 09:42:07;;;;;;;6.15;1.40;;;24.10;99.90;;;;;;5013963;28;20492;-40
2023/11/07 09:44:39;;;;;;;3.05;1.40;;;24.10;99.90;;;;;;5013068;28;20026;-41
2023/11/07 09:47:06;;;;;;;3.65;1.80;;;24.10;99.90;;;;;;5013732;28;20018;-40
2023/11/07 09:49:33;;;;;;;3.85;1.50;;;24.20;99.90;;;;;;5013645;28;20026;-40
2023/11/07 09:52:06;;;;;;;5.90;2.00;;;24.20;99.90;;;;;;5012694;28;20018;-39
2023/11/07 09:54:33;;;;;;;3.33;1.65;;;24.30;99.90;;;;;;5013488;28;20271;-40
2023/11/07 09:57:06;;;;;;;3.50;1.80;;;24.30;99.90;;;;;;5013665;28;20033;-39
2023/11/07 10:00:10;;;;;;;3.25;1.75;;;24.40;99.90;;;;;;5013773;28;20045;-39
2023/11/07 10:02:37;;;;;;;3.75;2.00;;;24.50;99.90;;;;;;4971967;28;20086;-39
2023/11/07 10:05:05;;;;;;;3.38;1.65;;;24.50;99.90;;;;;;5002059;28;20037;-39
2023/11/07 10:07:31;;;;;;;7.20;1.90;;;24.60;99.90;;;;;;5012527;28;20109;-39
2023/11/07 10:09:57;;;;;;;6.90;2.28;;;24.60;99.90;;;;;;5013307;28;20022;-40
2023/11/07 10:12:23;;;;;;;3.35;1.58;;;24.70;99.90;;;;;;5013292;28;20026;-41
2023/11/07 10:14:49;;;;;;;5.50;2.38;;;24.70;99.90;;;;;;5012912;28;20033;-40
2023/11/07 10:17:22;;;;;;;5.28;1.85;;;24.80;99.90;;;;;;5013222;28;20398;-51
2023/11/07 10:20:04;;;;;;;7.30;1.88;;;24.90;99.90;;;;;;5013112;28;20105;-40
2023/11/07 10:22:43;;;;;;;5.35;1.83;;;24.90;99.90;;;;;;5013407;28;20049;-40
2023/11/07 10:25:11;;;;;;;9.20;2.08;;;24.90;99.90;;;;;;5013068;28;20476;-40
2023/11/07 10:27:37;;;;;;;9.57;2.17;;;25.00;99.90;;;;;;5013087;28;20371;-40
2023/11/07 10:30:04;;;;;;;6.20;2.42;;;25.00;99.90;;;;;;5013093;28;20084;-39
2023/11/07 10:32:45;;;;;;;5.47;1.83;;;25.10;99.90;;;;;;5012971;28;20023;-40
2023/11/07 10:35:11;;;;;;;3.80;1.90;;;25.10;99.90;;;;;;5012825;28;20022;-38
2023/11/07 10:37:37;;;;;;;5.32;2.33;;;25.10;99.90;;;;;;5012897;28;20026;-41
2023/11/07 10:40:06;;;;;;;3.42;1.85;;;25.20;99.90;;;;;;5012990;28;20030;-39
2023/11/07 10:42:34;;;;;;;6.25;2.10;;;25.20;99.90;;;;;;5012956;28;20021;-39
2023/11/07 10:45:09;;;;;;;6.68;2.55;;;25.30;99.90;;;;;;5012774;28;20036;-39
2023/11/07 10:47:37;;;;;;;8.32;2.15;;;25.40;99.90;;;;;;5013197;28;20075;-40
2023/11/07 10:50:04;;;;;;;4.47;2.40;;;25.40;99.90;;;;;;5012747;28;20037;-40
2023/11/07 10:52:29;;;;;;;4.60;3.08;;;25.40;99.90;;;;;;5012496;28;20022;-39
2023/11/07 10:54:56;;;;;;;6.03;2.60;;;25.40;99.90;;;;;;5012518;28;20045;-40
2023/11/07 10:57:26;;;;;;;6.85;2.78;;;25.50;99.90;;;;;;5012520;28;20030;-40
2023/11/07 11:00:10;;;;;;;6.13;2.67;;;25.50;99.90;;;;;;5012549;28;20029;-39
2023/11/07 11:02:41;;;;;;;5.47;3.33;;;25.50;99.90;;;;;;5012354;28;20050;-39
2023/11/07 11:05:11;;;;;;;9.52;3.78;;;25.60;99.90;;;;;;5012195;28;20021;-39
2023/11/07 11:07:41;;;;;;;8.88;4.53;;;25.60;99.90;;;;;;5012591;28;20022;-39
2023/11/07 11:10:10;;;;;;;6.43;3.80;;;25.60;99.90;;;;;;5012427;28;20026;-39
2023/11/07 11:12:40;;;;;;;6.95;4.15;;;25.70;99.90;;;;;;5012580;28;20040;-40
2023/11/07 11:15:09;;;;;;;7.60;3.47;;;25.70;99.90;;;;;;5012602;28;20052;-41
2023/11/07 11:17:48;;;;;;;7.28;4.45;;;25.70;99.90;;;;;;5012469;28;20018;-40
2023/11/07 11:20:32;;;;;;;7.47;4.30;;;25.70;99.90;;;;;;5012473;28;20026;-40
2023/11/07 11:23:29;;;;;;;7.90;4.65;;;25.80;99.90;;;;;;5012438;28;20038;-40
2023/11/07 11:26:13;;;;;;;;;;;25.80;99.90;;;;;;4997213;28;20109;-40
2023/11/07 11:28:40;;;;;;;8.60;4.60;;;25.80;99.90;;;;;;5012457;28;19906;-40
2023/11/07 11:31:12;;;;;;;10.75;5.03;;;25.90;99.90;;;;;;5012687;28;20033;-41
2023/11/07 11:33:38;;;;;;;7.00;4.00;;;25.90;99.90;;;;;;5012593;28;20030;-40
2023/11/07 11:36:33;;;;;;;8.32;5.22;;;25.90;99.90;;;;;;5012491;28;20034;-40
2023/11/07 11:38:59;;;;;;;5.40;3.63;;;25.90;99.90;;;;;;5007513;28;20084;-41
2023/11/07 11:41:55;;;;;;;6.82;4.40;;;25.90;99.90;;;;;;5027361;28;20121;-40
2023/11/07 11:44:22;;;;;;;8.13;4.45;;;26.00;99.90;;;;;;5012113;28;20022;-40
2023/11/07 11:46:48;;;;;;;7.50;4.85;;;26.00;99.90;;;;;;5011943;28;20419;-40
2023/11/07 11:49:16;;;;;;;7.47;4.03;;;26.00;99.90;;;;;;5012388;28;20073;-40
2023/11/07 11:51:51;;;;;;;7.25;5.03;;;26.00;99.90;;;;;;5012165;28;20021;-40
2023/11/07 11:54:40;;;;;;;6.40;4.50;;;26.10;99.90;;;;;;5012075;28;20106;-40
2023/11/07 11:57:10;;;;;;;6.55;4.30;;;26.10;99.90;;;;;;5012143;28;20030;-40
2023/11/07 11:59:56;;;;;;;6.43;4.05;;;26.10;99.90;;;;;;5012455;28;20026;-40
2023/11/07 12:02:41;;;;;;;6.50;3.58;;;26.10;99.90;;;;;;5011909;28;20046;-40
2023/11/07 12:05:17;;;;;;;6.65;3.95;;;26.10;99.90;;;;;;5012051;28;20030;-40
2023/11/07 12:07:46;;;;;;;8.48;4.03;;;26.20;99.90;;;;;;5012108;28;20029;-40
2023/11/07 12:10:21;;;;;;;7.40;3.88;;;26.20;99.90;;;;;;5015577;28;20026;-40
2023/11/07 12:13:01;;;;;;;8.73;4.18;;;26.20;99.90;;;;;;5015467;28;20437;-40
2023/11/07 12:15:27;;;;;;;7.65;3.58;;;26.20;99.90;;;;;;5015251;28;20091;-40
2023/11/07 12:17:53;;;;;;;8.02;4.30;;;26.30;99.90;;;;;;5015370;28;20021;-40
2023/11/07 12:20:19;;;;;;;7.78;3.80;;;26.30;99.90;;;;;;5015449;28;20470;-40
2023/11/07 12:22:47;;;;;;;5.28;3.33;;;26.30;99.90;;;;;;5014122;28;20080;-40
2023/11/07 12:25:17;;;;;;;6.25;3.67;;;26.30;99.90;;;;;;5015361;28;20024;-40
2023/11/07 12:28:04;;;;;;;6.35;3.65;;;26.30;99.90;;;;;;5015293;28;20033;-40
2023/11/07 12:30:36;;;;;;;5.75;3.50;;;26.30;99.90;;;;;;5015161;28;20025;-40
2023/11/07 12:33:09;;;;;;;8.18;3.78;;;26.30;99.90;;;;;;5015172;28;20033;-41
2023/11/07 12:35:35;;;;;;;5.85;3.65;;;26.40;99.90;;;;;;5015057;28;20034;-41
2023/11/07 12:38:07;;;;;;;6.30;3.35;;;26.40;99.90;;;;;;5015023;28;20080;-40
2023/11/07 12:40:33;;;;;;;7.32;3.40;;;26.40;99.90;;;;;;5015500;28;20390;-41
2023/11/07 12:43:00;;;;;;;6.23;3.13;;;26.40;99.90;;;;;;5015070;28;20025;-41
2023/11/07 12:45:30;;;;;;;7.22;3.40;;;26.50;99.90;;;;;;5014955;28;20267;-41
2023/11/07 12:48:03;;;;;;;5.75;2.75;;;26.40;99.90;;;;;;5015226;28;20029;-47
2023/11/07 12:50:32;;;;;;;7.68;3.40;;;26.50;99.90;;;;;;5034614;28;20022;-41
2023/11/07 12:53:03;;;;;;;6.90;2.90;;;26.50;99.90;;;;;;5034421;28;20036;-41